Time;durP1;ratioP1;P1;durP2;ratioP2;P2;SDS_P1;SDS_P2;PMS_P1;PMS_P2;Temp;Humidity;BMP_temperature;BMP_pressure;BME280_temperature;BME280_humidity;BME280_pressure;Samples;Min_cycle;Max_cycle;Signal;HPM_P1;HPM_P2
2023/12/16 00:09:56;;;;;;;15.13;9.10;;;;;;;9.41;78.83;102951.44;4713195;30;20255;-64
2023/12/16 00:43:36;;;;;;;18.80;9.83;;;;;;;9.41;78.74;102977.91;4787318;29;20264;-67
2023/12/16 04:13:07;;;;;;;17.07;10.70;;;;;;;8.07;84.50;103020.66;4763194;30;20257;-71
2023/12/16 04:16:27;;;;;;;14.67;9.23;;;;;;;8.21;84.26;103036.72;4764700;30;20463;-73
2023/12/16 04:49:48;;;;;;;15.30;8.70;;;;;;;8.61;80.18;103033.97;4786085;29;21419;-70
2023/12/16 04:52:42;;;;;;;15.37;8.57;;;;;;;8.63;79.83;103029.44;4912506;29;20213;-71
2023/12/16 04:55:42;;;;;;;15.37;8.53;;;;;;;8.63;79.70;103026.78;4883223;29;20275;-70
2023/12/16 05:06:38;;;;;;;16.90;8.47;;;;;;;8.64;79.63;103019.72;4866679;29;20791;-70
2023/12/16 05:10:11;;;;;;;;;;;;;;;;;;;;;
2023/12/16 05:12:56;;;;;;;17.70;8.03;;;;;;;8.72;79.54;103024.63;4920840;29;20266;-69
2023/12/16 07:17:33;;;;;;;;;;;;;;;;;;;;;
2023/12/16 07:28:05;;;;;;;17.80;7.97;;;;;;;8.09;79.52;103119.22;4800982;29;20272;-67
2023/12/16 07:31:51;;;;;;;;;;;;;;;;;;;;;
2023/12/16 07:38:55;;;;;;;16.30;8.13;;;;;;;8.10;79.08;103132.34;4828368;29;20295;-67
2023/12/16 07:53:23;;;;;;;17.30;8.63;;;;;;;8.17;78.54;103125.03;4851338;28;20430;-65
2023/12/16 07:55:52;;;;;;;21.67;13.60;;;;;;;8.22;78.58;103133.59;4983763;28;20658;-63
2023/12/16 07:58:20;;;;;;;21.33;12.23;;;;;;;8.29;78.29;103121.81;4985207;28;20264;-63
2023/12/16 08:00:49;;;;;;;16.83;9.63;;;;;;;8.30;78.38;103121.75;4984435;28;20288;-62
2023/12/16 08:03:17;;;;;;;15.33;8.90;;;;;;;8.32;78.22;103119.09;4981910;28;20940;-62
2023/12/16 08:05:47;;;;;;;19.77;10.30;;;;;;;8.34;78.23;103130.47;4980747;28;20273;-64
2023/12/16 08:08:16;;;;;;;22.93;17.13;;;;;;;8.36;78.10;103133.88;4981213;28;20229;-62
2023/12/16 08:10:47;;;;;;;21.70;14.87;;;;;;;8.38;78.14;103131.16;4981687;28;20236;-63
2023/12/16 08:13:16;;;;;;;16.53;10.30;;;;;;;8.42;77.92;103138.03;4979559;28;20353;-63
2023/12/16 08:15:46;;;;;;;17.13;9.30;;;;;;;8.43;77.93;103140.63;4979050;28;20578;-63
2023/12/16 08:18:15;;;;;;;17.57;9.43;;;;;;;8.42;77.67;103138.91;4978539;28;20218;-63
2023/12/16 08:20:50;;;;;;;17.93;10.50;;;;;;;8.34;77.65;103151.59;4980184;28;20245;-62
2023/12/16 08:23:19;;;;;;;20.20;10.67;;;;;;;8.29;77.74;103153.53;4981040;28;20297;-64
2023/12/16 08:25:51;;;;;;;17.70;9.93;;;;;;;8.32;77.98;103158.75;4976343;28;20217;-64
2023/12/16 08:28:28;;;;;;;17.27;9.77;;;;;;;8.37;77.91;103161.16;4977050;28;20298;-63
2023/12/16 08:31:07;;;;;;;18.57;9.60;;;;;;;8.44;77.68;103152.91;4981179;28;20221;-64
2023/12/16 08:33:43;;;;;;;22.60;10.87;;;;;;;8.52;77.52;103157.84;4982011;28;20592;-63
2023/12/16 11:01:46;;;;;;;13.77;6.20;;;;;;;10.54;65.42;103187.53;4880347;29;20211;-69
2023/12/16 11:04:24;;;;;;;15.10;5.60;;;;;;;10.54;65.28;103196.34;4890303;29;20231;-69
2023/12/16 11:07:14;;;;;;;13.07;5.67;;;;;;;10.52;64.79;103198.22;4899687;29;20223;-71
2023/12/16 11:09:48;;;;;;;12.00;6.10;;;;;;;10.59;65.21;103196.09;4899498;29;20225;-71
2023/12/16 11:12:23;;;;;;;12.93;5.33;;;;;;;10.61;65.37;103194.22;4898793;29;20235;-69
2023/12/16 11:15:07;;;;;;;18.20;6.13;;;;;;;10.66;65.01;103191.31;4917585;29;20226;-70
2023/12/16 11:17:44;;;;;;;11.73;5.10;;;;;;;10.68;64.92;103197.41;4916515;29;20219;-72
2023/12/16 11:20:24;;;;;;;11.93;5.07;;;;;;;10.69;65.26;103189.38;4918451;29;20226;-70
2023/12/16 11:23:00;;;;;;;12.27;5.13;;;;;;;10.74;65.50;103189.94;4920171;29;20206;-71
2023/12/16 11:25:29;;;;;;;11.90;4.83;;;;;;;10.69;65.15;103189.38;4916731;29;20262;-69
2023/12/16 11:28:04;;;;;;;13.00;6.23;;;;;;;10.71;64.84;103191.94;4911290;29;20232;-69
2023/12/16 11:30:46;;;;;;;13.77;5.87;;;;;;;10.70;64.94;103188.44;4916281;29;20222;-64
2023/12/16 11:37:57;;;;;;;12.83;5.93;;;;;;;10.69;65.13;103173.44;4917174;29;20604;-70
2023/12/16 11:45:03;;;;;;;13.50;5.27;;;;;;;10.71;64.87;103166.25;4913047;28;20255;-66
2023/12/16 11:50:39;;;;;;;12.83;5.63;;;;;;;10.83;64.75;103164.72;4958615;28;20213;-67
2023/12/16 11:53:24;;;;;;;13.80;5.33;;;;;;;10.89;64.56;103170.56;4895644;28;20242;-69
2023/12/16 11:56:19;;;;;;;13.43;4.27;;;;;;;10.93;63.37;103155.28;4958934;28;20303;-67
2023/12/16 11:58:57;;;;;;;11.90;4.90;;;;;;;11.00;62.23;103155.81;4959194;28;20248;-66
2023/12/16 12:01:36;;;;;;;9.60;3.37;;;;;;;11.07;62.46;103146.56;4958829;28;20211;-65
2023/12/16 12:04:05;;;;;;;13.30;3.67;;;;;;;11.17;61.41;103153.09;4956369;28;20308;-64
2023/12/16 12:06:36;;;;;;;8.97;3.50;;;;;;;11.33;59.85;103143.28;4960257;28;20253;-66
2023/12/16 12:09:05;;;;;;;12.03;3.97;;;;;;;11.48;59.08;103136.22;4955995;28;20211;-65
2023/12/16 12:11:37;;;;;;;9.13;3.50;;;;;;;11.49;58.28;103133.47;4957503;28;20306;-65
2023/12/16 12:14:09;;;;;;;15.70;3.87;;;;;;;11.52;57.96;103132.44;4961919;28;20598;-70
2023/12/16 12:16:37;;;;;;;13.33;3.77;;;;;;;11.50;57.29;103132.53;4964199;28;20221;-70
2023/12/16 12:19:06;;;;;;;10.30;3.27;;;;;;;11.48;57.58;103126.44;4966298;28;20696;-68
2023/12/16 12:21:55;;;;;;;9.33;3.67;;;;;;;11.36;57.01;103123.63;4966760;28;20260;-67
2023/12/16 12:24:43;;;;;;;16.57;4.23;;;;;;;11.33;57.84;103127.34;4964193;28;20210;-68
2023/12/16 12:27:11;;;;;;;11.40;3.30;;;;;;;11.31;58.11;103124.78;4962637;28;20230;-68
2023/12/16 12:29:58;;;;;;;8.90;3.50;;;;;;;11.32;58.61;103112.34;4963893;28;20212;-68
2023/12/16 12:32:34;;;;;;;14.13;3.63;;;;;;;11.31;58.09;103118.59;4961533;28;20854;-66
2023/12/16 12:35:30;;;;;;;9.33;3.33;;;;;;;11.28;57.14;103110.81;4962625;28;20692;-68
2023/12/16 12:38:02;;;;;;;8.83;3.03;;;;;;;11.27;56.76;103101.13;4965050;28;20905;-69
2023/12/16 12:40:33;;;;;;;10.00;2.80;;;;;;;11.31;56.76;103092.03;4963799;28;20986;-67
2023/12/16 12:43:10;;;;;;;15.70;3.43;;;;;;;11.27;55.85;103083.38;4962100;28;20210;-69
2023/12/16 12:45:38;;;;;;;9.70;2.90;;;;;;;11.39;56.06;103086.28;4963403;28;20214;-68
2023/12/16 12:48:11;;;;;;;8.47;3.43;;;;;;;11.45;56.20;103076.13;4966601;28;20229;-67
2023/12/16 12:50:55;;;;;;;9.13;3.97;;;;;;;11.53;55.95;103075.66;4964828;28;20241;-67
2023/12/16 12:53:27;;;;;;;16.23;4.20;;;;;;;11.51;55.21;103065.16;4964248;28;20234;-67
2023/12/16 12:56:06;;;;;;;8.77;3.57;;;;;;;11.68;55.63;103067.66;4962755;28;20215;-66
2023/12/16 12:58:37;;;;;;;10.80;3.93;;;;;;;11.76;54.98;103053.06;4964017;28;20225;-67
2023/12/16 13:01:06;;;;;;;8.63;3.07;;;;;;;11.85;55.13;103044.53;4964950;28;20266;-67
2023/12/16 13:03:51;;;;;;;11.73;3.53;;;;;;;11.85;54.43;103040.06;4960499;28;20246;-65
2023/12/16 13:06:22;;;;;;;10.17;3.00;;;;;;;11.89;54.32;103035.41;4960014;28;20245;-66
2023/12/16 13:08:52;;;;;;;12.87;3.80;;;;;;;11.87;54.81;103032.00;4964867;28;20219;-66
2023/12/16 13:11:22;;;;;;;11.33;3.60;;;;;;;11.77;54.21;103030.88;4961731;28;20226;-67
2023/12/16 13:13:52;;;;;;;8.53;3.30;;;;;;;11.75;54.77;103038.06;4960656;28;20309;-69
2023/12/16 13:16:21;;;;;;;10.67;3.67;;;;;;;11.72;54.59;103032.91;4962531;28;20720;-69
2023/12/16 13:18:58;;;;;;;12.17;3.10;;;;;;;11.65;54.28;103032.41;4964589;28;20246;-64
2023/12/16 13:21:41;;;;;;;;;;;;;;;;;;;;;
2023/12/16 13:24:30;;;;;;;9.27;2.70;;;;;;;11.41;53.72;103024.13;4923837;28;20223;-69
2023/12/16 13:27:13;;;;;;;9.30;2.40;;;;;;;11.39;54.18;103023.34;4961176;28;20219;-69
2023/12/16 13:29:41;;;;;;;12.10;2.67;;;;;;;11.25;53.25;103018.03;4964210;28;20256;-67
2023/12/16 13:32:10;;;;;;;8.07;2.17;;;;;;;11.08;52.79;103010.19;4963266;28;20242;-69
2023/12/16 13:34:38;;;;;;;9.00;2.73;;;;;;;11.04;53.52;103006.00;4963918;28;20238;-69
2023/12/16 13:37:06;;;;;;;7.93;2.03;;;;;;;10.96;53.85;103006.44;4962874;28;20213;-68
2023/12/16 13:39:39;;;;;;;11.27;2.23;;;;;;;10.93;54.91;103012.78;4963419;28;20380;-71
2023/12/16 13:42:07;;;;;;;10.20;2.83;;;;;;;10.91;54.99;103009.34;4963956;28;20314;-68
2023/12/16 13:44:38;;;;;;;9.27;2.43;;;;;;;10.90;55.20;103004.16;4964532;28;20226;-69
2023/12/16 13:47:07;;;;;;;7.07;2.27;;;;;;;10.84;55.03;103007.13;4962204;28;20214;-69
2023/12/16 13:49:41;;;;;;;11.97;2.73;;;;;;;10.78;55.08;102997.75;4962338;28;20214;-69
2023/12/16 13:52:10;;;;;;;8.43;2.30;;;;;;;10.72;55.01;102998.09;4963133;28;20250;-68
2023/12/16 13:58:27;;;;;;;8.90;1.93;;;;;;;10.64;54.97;102995.03;4961744;28;20252;-68
2023/12/16 14:01:00;;;;;;;11.23;2.10;;;;;;;10.63;55.23;102995.97;4961728;28;20873;-66
2023/12/16 14:04:00;;;;;;;6.63;1.83;;;;;;;10.66;54.93;103002.88;4961996;28;20241;-65
2023/12/16 14:06:39;;;;;;;5.50;2.10;;;;;;;10.62;53.75;102996.06;4930916;28;20565;-70
2023/12/16 14:09:15;;;;;;;10.80;2.27;;;;;;;10.63;54.37;102995.97;4965741;28;20217;-73
2023/12/16 14:12:01;;;;;;;6.77;2.07;;;;;;;10.65;54.41;103003.81;4963457;28;20295;-71
2023/12/16 14:14:32;;;;;;;10.63;2.10;;;;;;;10.68;54.88;103004.50;4959208;28;20234;-69
2023/12/16 14:17:16;;;;;;;12.70;2.37;;;;;;;10.71;55.06;102993.75;4962597;28;20212;-69
2023/12/16 14:19:50;;;;;;;7.60;1.60;;;;;;;10.67;54.35;103000.16;4956320;28;20755;-66
2023/12/16 14:22:49;;;;;;;7.87;2.13;;;;;;;10.69;54.98;102992.97;4964610;28;20235;-65
2023/12/16 14:25:21;;;;;;;12.53;2.70;;;;;;;10.70;54.40;103009.75;4959779;28;20840;-67
2023/12/16 14:27:52;;;;;;;9.43;2.30;;;;;;;10.70;54.61;103005.28;4964275;28;20652;-67
2023/12/16 14:30:31;;;;;;;8.10;2.10;;;;;;;10.67;55.27;103004.59;4964058;28;20218;-65
2023/12/16 14:32:59;;;;;;;10.60;2.57;;;;;;;10.66;55.17;103013.50;4964974;28;20222;-69
2023/12/16 14:38:28;;;;;;;7.60;2.27;;;;;;;10.53;55.49;102998.28;4934360;28;20221;-67
2023/12/16 14:41:16;;;;;;;14.93;2.70;;;;;;;10.50;55.57;102997.59;4962006;28;20240;-68
2023/12/16 14:43:44;;;;;;;8.53;1.90;;;;;;;10.49;55.54;103001.19;4966408;28;20214;-69
2023/12/16 14:46:35;;;;;;;7.47;2.40;;;;;;;10.47;56.01;103001.28;4962839;28;20224;-63
2023/12/16 14:49:04;;;;;;;9.57;2.70;;;;;;;10.43;55.84;103006.84;4964454;28;20212;-62
2023/12/16 14:51:40;;;;;;;5.83;2.27;;;;;;;10.38;56.48;103008.91;4965513;28;20214;-68
2023/12/16 15:00:41;;;;;;;9.90;2.87;;;;;;;10.21;57.25;103007.16;4892817;29;20219;-67
2023/12/16 15:03:28;;;;;;;7.60;2.47;;;;;;;10.17;57.61;103005.59;4892453;29;20232;-64
2023/12/16 15:13:46;;;;;;;10.43;2.13;;;;;;;10.02;57.91;103006.44;4875026;29;20230;-65
2023/12/16 15:16:41;;;;;;;8.30;2.60;;;;;;;9.96;58.41;103002.31;4933109;28;20737;-67
2023/12/16 15:19:19;;;;;;;5.50;2.33;;;;;;;9.94;58.59;103001.53;4960056;28;20213;-67
2023/12/16 15:31:28;;;;;;;6.63;2.53;;;;;;;9.85;60.64;102978.16;4951141;28;20222;-66
2023/12/16 15:53:32;;;;;;;12.97;4.63;;;;;;;9.59;61.91;102953.06;4688663;30;20285;-67
2023/12/16 15:56:05;;;;;;;12.50;5.27;;;;;;;9.59;61.38;102949.56;4785757;29;20282;-65
2023/12/16 15:58:33;;;;;;;14.87;4.77;;;;;;;9.56;60.53;102955.03;4851321;29;20272;-66
2023/12/16 16:01:01;;;;;;;16.17;4.53;;;;;;;9.55;61.04;102959.50;4901472;29;20334;-66
2023/12/16 16:03:30;;;;;;;12.03;4.23;;;;;;;9.53;61.64;102964.00;4897939;29;20247;-65
2023/12/16 16:05:59;;;;;;;13.33;5.40;;;;;;;9.44;62.42;102968.00;4903496;29;20233;-66
2023/12/16 16:08:27;;;;;;;14.17;7.03;;;;;;;9.34;63.09;102966.75;4900502;29;20217;-67
2023/12/16 16:10:59;;;;;;;14.33;5.20;;;;;;;9.32;63.33;102963.31;4899923;29;20336;-67
2023/12/16 16:13:27;;;;;;;13.93;4.97;;;;;;;9.27;63.46;102967.16;4900605;29;20235;-66
2023/12/16 16:15:56;;;;;;;15.80;6.13;;;;;;;9.24;63.50;102967.31;4946675;28;20219;-67
2023/12/16 16:18:24;;;;;;;15.33;6.60;;;;;;;9.24;63.25;102954.91;4962081;28;20210;-65
2023/12/16 16:20:52;;;;;;;21.43;8.90;;;;;;;9.27;62.48;102952.13;4961544;28;20213;-66
2023/12/16 16:23:23;;;;;;;15.80;7.80;;;;;;;9.29;62.08;102952.91;4960461;28;20207;-65
2023/12/16 16:25:52;;;;;;;14.80;7.00;;;;;;;9.30;62.20;102951.97;4962455;28;20266;-66
2023/12/16 16:28:21;;;;;;;17.77;7.13;;;;;;;9.32;62.68;102941.31;4961672;28;20283;-63
2023/12/16 16:30:49;;;;;;;17.07;6.07;;;;;;;9.31;61.85;102944.91;4961406;28;20613;-63
2023/12/16 16:33:17;;;;;;;14.30;6.10;;;;;;;9.28;62.61;102961.78;4964896;28;20302;-63
2023/12/16 16:35:50;;;;;;;14.70;5.73;;;;;;;9.25;62.93;102964.59;4958825;28;20299;-64
2023/12/16 16:38:18;;;;;;;31.20;7.83;;;;;;;9.24;62.98;102964.66;4963320;28;20215;-63
2023/12/16 16:40:47;;;;;;;26.13;10.77;;;;;;;9.10;63.51;102962.72;4960134;28;20226;-63
2023/12/16 16:43:15;;;;;;;26.40;10.57;;;;;;;9.00;63.95;102972.91;4962159;28;20311;-62
2023/12/16 16:45:45;;;;;;;25.00;7.43;;;;;;;8.92;63.81;102968.94;4963562;28;20226;-63
2023/12/16 16:48:17;;;;;;;18.83;6.47;;;;;;;8.90;64.09;102971.66;4961211;28;20222;-63
2023/12/16 16:50:48;;;;;;;15.73;6.00;;;;;;;8.97;64.13;102982.81;4960698;28;20206;-63
2023/12/16 16:53:16;;;;;;;19.37;8.73;;;;;;;8.98;63.84;102977.44;4959426;28;20225;-63
2023/12/16 16:55:45;;;;;;;23.90;10.23;;;;;;;8.93;64.09;102983.91;4960300;28;20227;-62
2023/12/16 16:58:13;;;;;;;20.03;7.33;;;;;;;8.91;63.89;102977.81;4958676;28;20235;-65
2023/12/16 17:00:41;;;;;;;14.43;7.73;;;;;;;8.94;64.31;102975.88;4959296;28;20303;-64
2023/12/16 17:03:11;;;;;;;17.00;8.10;;;;;;;8.93;64.57;102973.31;4958584;28;20361;-63
2023/12/16 17:05:45;;;;;;;17.60;8.33;;;;;;;8.89;65.04;102977.03;4961406;28;20333;-63
2023/12/16 17:08:22;;;;;;;18.73;8.33;;;;;;;8.85;65.12;102978.13;4957568;28;20330;-63
2023/12/16 17:10:51;;;;;;;19.67;8.43;;;;;;;8.82;65.35;102997.66;4961799;28;20668;-64
2023/12/16 17:13:19;;;;;;;19.10;8.93;;;;;;;8.80;64.76;103002.16;4961832;28;20222;-64
2023/12/16 17:15:47;;;;;;;22.13;10.03;;;;;;;8.73;64.35;102999.91;4959104;28;20235;-65
2023/12/16 17:18:16;;;;;;;24.93;9.77;;;;;;;8.67;64.63;102996.63;4967116;28;20218;-64
2023/12/16 17:20:45;;;;;;;16.47;8.73;;;;;;;8.60;65.35;103000.50;4962559;28;20212;-63
2023/12/16 17:23:13;;;;;;;19.50;7.87;;;;;;;8.56;65.78;103006.00;4964237;28;20254;-64
2023/12/16 17:25:41;;;;;;;18.37;8.50;;;;;;;8.55;65.46;103002.50;4992715;23;20756;-70
2023/12/16 17:28:10;;;;;;;17.10;7.37;;;;;;;8.54;64.88;102999.91;5001552;28;20205;-70
2023/12/16 17:30:38;;;;;;;13.70;6.13;;;;;;;8.55;64.97;102999.84;4997038;28;20208;-71
2023/12/16 17:33:09;;;;;;;14.10;6.40;;;;;;;8.59;64.69;103004.09;5001483;28;20277;-70
2023/12/16 17:35:40;;;;;;;20.30;7.33;;;;;;;8.56;65.50;102996.28;4998729;28;20238;-70
2023/12/16 17:38:08;;;;;;;16.67;7.20;;;;;;;8.51;65.92;102990.38;5000258;28;20201;-71
2023/12/16 17:40:39;;;;;;;18.73;7.47;;;;;;;8.45;66.20;102993.28;5004217;28;20206;-71
2023/12/16 17:43:07;;;;;;;19.90;7.43;;;;;;;8.44;66.64;102999.53;5004648;28;20291;-70
2023/12/16 17:45:36;;;;;;;16.10;6.67;;;;;;;8.40;66.58;102984.72;5001992;28;20209;-68
2023/12/16 17:48:04;;;;;;;23.47;6.53;;;;;;;8.36;66.71;102990.22;5001802;28;20213;-69
2023/12/16 17:50:33;;;;;;;13.97;7.67;;;;;;;8.28;66.87;102988.75;5000236;28;20237;-69
2023/12/16 17:53:02;;;;;;;15.30;6.33;;;;;;;8.26;66.84;102984.50;5000300;28;20317;-68
2023/12/16 17:55:33;;;;;;;12.13;6.23;;;;;;;8.29;66.54;102984.34;4999938;28;20610;-70
2023/12/16 17:58:01;;;;;;;15.53;6.40;;;;;;;8.28;66.64;102982.63;5002186;28;20213;-71
2023/12/16 18:00:29;;;;;;;17.83;7.33;;;;;;;8.13;66.58;102975.41;5000756;28;20208;-70
2023/12/16 18:02:57;;;;;;;24.97;7.83;;;;;;;8.05;67.22;102964.34;5002163;28;20201;-67
2023/12/16 18:05:26;;;;;;;18.47;8.33;;;;;;;7.99;67.57;102965.50;4999170;28;20278;-67
2023/12/16 18:07:55;;;;;;;17.17;7.83;;;;;;;7.88;67.64;102958.06;5000657;28;20245;-68
2023/12/16 18:10:26;;;;;;;16.90;7.23;;;;;;;7.89;68.06;102957.13;5002155;28;20509;-69
2023/12/16 18:12:53;;;;;;;13.03;7.90;;;;;;;7.92;67.66;102966.69;5002364;28;20213;-68
2023/12/16 18:15:22;;;;;;;19.07;8.43;;;;;;;7.93;67.28;102957.84;4999881;28;20237;-70
2023/12/16 18:17:50;;;;;;;22.93;8.77;;;;;;;7.87;67.47;102969.56;5001976;28;20212;-69
2023/12/16 18:20:18;;;;;;;20.90;9.07;;;;;;;7.83;67.78;102967.09;5003672;28;20925;-69
2023/12/16 18:29:37;;;;;;;22.77;11.13;;;;;;;7.76;68.49;102992.09;4992130;28;20213;-69
2023/12/16 18:36:02;;;;;;;23.13;9.80;;;;;;;7.75;68.31;103007.09;4938255;28;20885;-68
2023/12/16 18:39:09;;;;;;;20.50;9.17;;;;;;;7.74;68.33;103008.00;4952891;28;20216;-69
2023/12/16 18:41:51;;;;;;;16.93;9.00;;;;;;;7.72;68.38;103025.72;5003280;28;20298;-68
2023/12/16 18:44:31;;;;;;;24.73;10.33;;;;;;;7.71;68.51;103031.06;4999704;28;20216;-68
2023/12/16 18:53:57;;;;;;;24.03;10.20;;;;;;;7.63;68.09;103044.63;4999271;28;20589;-67
2023/12/16 18:56:37;;;;;;;20.70;10.30;;;;;;;7.62;68.15;103048.19;4999931;28;20240;-68
2023/12/16 18:59:41;;;;;;;26.17;11.70;;;;;;;7.63;68.70;103047.25;5001033;28;20308;-70
2023/12/16 19:02:17;;;;;;;20.33;9.70;;;;;;;7.64;69.12;103063.97;4985615;28;20228;-69
2023/12/16 19:05:11;;;;;;;24.20;10.67;;;;;;;7.61;69.07;103067.59;4957454;28;20651;-69
2023/12/16 19:07:44;;;;;;;24.77;11.47;;;;;;;7.59;69.11;103071.22;5004148;28;20208;-68
2023/12/16 19:10:27;;;;;;;25.03;10.40;;;;;;;7.52;69.03;103084.69;5001098;28;20231;-69
2023/12/16 19:12:57;;;;;;;26.30;11.20;;;;;;;7.49;69.12;103081.31;5003056;28;20848;-69
2023/12/16 19:15:44;;;;;;;23.73;10.77;;;;;;;7.48;68.84;103084.88;5001966;28;20232;-68
2023/12/16 19:18:24;;;;;;;27.73;11.17;;;;;;;7.48;69.01;103075.16;5001091;28;20677;-70
2023/12/16 19:21:35;;;;;;;18.90;9.40;;;;;;;7.49;69.54;103068.09;5001263;28;20204;-71
2023/12/16 19:24:15;;;;;;;18.87;9.57;;;;;;;7.55;69.55;103054.66;4999277;28;20218;-70
2023/12/16 19:33:45;;;;;;;27.13;12.13;;;;;;;7.39;70.04;103048.28;4996729;28;20572;-70
2023/12/16 19:36:21;;;;;;;23.20;12.90;;;;;;;7.31;69.95;103039.84;4999327;28;20232;-69
2023/12/16 19:39:03;;;;;;;29.13;12.77;;;;;;;7.29;70.11;103036.44;5003946;28;20564;-68
2023/12/16 19:42:05;;;;;;;27.30;12.20;;;;;;;7.23;70.21;103041.94;5002886;28;20221;-67
2023/12/16 19:45:28;;;;;;;29.30;14.53;;;;;;;7.19;70.07;103043.88;4992933;28;20211;-66
2023/12/16 19:48:12;;;;;;;41.70;14.77;;;;;;;7.19;70.09;103025.41;5004577;28;20288;-69
2023/12/16 19:50:46;;;;;;;21.70;11.83;;;;;;;7.21;70.07;103018.28;5002963;28;20294;-67
2023/12/16 19:53:30;;;;;;;19.83;9.20;;;;;;;7.18;69.98;103003.44;5000313;28;20211;-67
2023/12/16 19:56:13;;;;;;;19.07;9.20;;;;;;;7.04;69.96;103011.03;4999551;28;20231;-70
2023/12/16 19:59:12;;;;;;;16.30;7.90;;;;;;;6.97;70.22;103017.50;5001692;28;20206;-68
2023/12/16 20:01:49;;;;;;;17.77;9.03;;;;;;;6.97;70.21;103017.50;5001746;28;20214;-69
2023/12/16 20:04:33;;;;;;;28.83;12.07;;;;;;;6.94;70.06;103009.72;5002419;28;20207;-68
2023/12/16 20:07:16;;;;;;;28.77;13.17;;;;;;;6.89;70.20;103011.69;5003546;28;20212;-71
2023/12/16 20:10:06;;;;;;;27.30;12.57;;;;;;;6.75;70.71;103003.47;5002672;28;20261;-70
2023/12/16 20:12:57;;;;;;;24.70;12.63;;;;;;;6.73;71.00;103002.69;5004741;28;20207;-70
2023/12/16 20:15:48;;;;;;;23.97;12.20;;;;;;;6.77;71.00;103004.28;5000832;28;20207;-68
2023/12/16 20:18:38;;;;;;;25.30;11.33;;;;;;;6.88;70.81;102999.41;4984999;28;20686;-67
2023/12/16 20:21:12;;;;;;;24.90;11.63;;;;;;;6.95;70.47;103006.16;5003975;28;20226;-70
2023/12/16 20:23:58;;;;;;;23.73;10.73;;;;;;;7.03;69.67;103003.22;4997105;28;20212;-71
2023/12/16 20:33:40;;;;;;;22.87;10.70;;;;;;;6.84;70.06;103007.53;4950576;28;20539;-68
2023/12/16 20:36:22;;;;;;;20.43;10.33;;;;;;;6.78;70.31;103011.25;5006664;28;20289;-71
2023/12/16 20:42:03;;;;;;;22.37;10.30;;;;;;;6.66;70.62;103017.91;4987910;28;20207;-69
2023/12/16 20:44:50;;;;;;;22.37;10.50;;;;;;;6.58;71.01;103021.75;5007026;28;20207;-68
2023/12/16 20:47:39;;;;;;;18.57;9.47;;;;;;;6.60;71.04;103020.75;4991793;28;20531;-68
2023/12/16 20:54:19;;;;;;;17.73;9.33;;;;;;;6.59;71.16;103005.88;4990664;28;20216;-69
2023/12/16 21:01:18;;;;;;;19.57;8.80;;;;;;;6.47;71.31;102998.44;4968421;28;20675;-70
2023/12/16 21:04:13;;;;;;;23.90;9.03;;;;;;;6.31;72.02;102982.38;4887920;29;20218;-67
2023/12/16 21:24:12;;;;;;;22.97;10.20;;;;;;;6.70;71.15;103027.38;4907774;29;20217;-68
2023/12/16 21:26:53;;;;;;;24.77;11.60;;;;;;;6.64;71.03;103014.47;4926450;29;20221;-67
2023/12/16 21:29:29;;;;;;;30.47;13.57;;;;;;;6.48;71.44;103015.13;4990545;28;20214;-68
2023/12/16 21:32:04;;;;;;;40.93;15.07;;;;;;;6.44;71.94;103017.00;5007515;28;20623;-68
2023/12/16 21:34:37;;;;;;;31.77;14.87;;;;;;;6.43;71.69;103018.78;5004694;28;20205;-67
2023/12/16 21:37:14;;;;;;;29.23;12.70;;;;;;;6.36;71.86;103030.50;5005044;28;20310;-70
2023/12/16 21:39:46;;;;;;;28.77;12.77;;;;;;;6.42;71.92;103040.78;5003255;28;20213;-67
2023/12/16 21:42:35;;;;;;;30.60;12.13;;;;;;;6.48;71.70;103025.66;4940183;28;20495;-67
2023/12/16 21:45:06;;;;;;;25.10;11.73;;;;;;;6.52;71.58;103024.63;4937853;28;20214;-69
2023/12/16 21:47:51;;;;;;;32.00;11.83;;;;;;;6.54;71.62;103030.69;4939099;28;20297;-67
2023/12/16 21:50:39;;;;;;;27.80;11.97;;;;;;;6.53;71.55;103028.97;4939701;28;20400;-68
2023/12/16 21:53:51;;;;;;;22.97;11.97;;;;;;;6.56;71.55;103023.59;4940390;28;20208;-68
2023/12/16 22:00:57;;;;;;;;;;;;;;;;;;;;;
2023/12/16 22:06:49;;;;;;;24.67;11.03;;;;;;;6.41;71.77;102994.28;4889505;29;20259;-70
2023/12/16 22:09:32;;;;;;;23.67;11.10;;;;;;;6.54;71.64;102992.00;4896005;28;20359;-67
2023/12/16 22:19:03;;;;;;;29.00;11.73;;;;;;;6.57;70.86;103001.59;4939478;28;20822;-68
2023/12/16 22:25:46;;;;;;;24.10;10.87;;;;;;;6.52;71.18;102980.66;4999646;28;20209;-68
